createdAt,value
2023-08-17T00:02:14.375Z,9.95
2023-08-17T00:04:41.860Z,10.30
2023-08-17T00:07:08.565Z,10.48
2023-08-17T00:09:35.512Z,10.25
2023-08-17T00:12:02.330Z,10.80
2023-08-17T00:14:29.741Z,10.63
2023-08-17T00:16:56.467Z,9.27
2023-08-17T00:19:23.346Z,11.60
2023-08-17T00:21:53.829Z,10.55
2023-08-17T00:24:20.512Z,9.90
2023-08-17T00:26:47.319Z,10.18
2023-08-17T00:29:16.187Z,11.05
2023-08-17T00:31:43.041Z,9.65
2023-08-17T00:34:09.845Z,10.02
2023-08-17T00:36:37.165Z,11.20
2023-08-17T00:39:03.980Z,11.43
2023-08-17T00:41:31.531Z,10.32
2023-08-17T00:43:58.278Z,10.85
2023-08-17T00:46:25.585Z,10.45
2023-08-17T00:48:52.429Z,10.88
2023-08-17T00:51:21.603Z,9.80
2023-08-17T00:53:48.339Z,10.60
2023-08-17T00:56:15.109Z,9.35
2023-08-17T00:58:43.517Z,9.25
2023-08-17T01:01:10.566Z,12.55
2023-08-17T01:03:37.587Z,12.07
2023-08-17T01:06:04.639Z,10.38
2023-08-17T01:08:31.724Z,10.80
2023-08-17T01:11:08.611Z,11.35
2023-08-17T01:14:07.299Z,10.50
2023-08-17T01:16:47.093Z,10.07
2023-08-17T01:19:22.269Z,9.02
2023-08-17T01:21:51.486Z,9.10
2023-08-17T01:24:18.173Z,8.60
2023-08-17T01:26:45.526Z,8.40
2023-08-17T01:29:12.429Z,9.05
2023-08-17T01:31:48.602Z,8.45
2023-08-17T01:34:20.567Z,8.45
2023-08-17T01:36:57.287Z,8.70
2023-08-17T01:39:28.480Z,8.85
2023-08-17T01:41:58.469Z,8.23
2023-08-17T01:44:27.149Z,8.93
2023-08-17T01:46:54.500Z,10.13
2023-08-17T01:49:21.322Z,8.85
2023-08-17T01:51:47.996Z,9.00
2023-08-17T01:54:14.911Z,9.73
2023-08-17T01:56:41.626Z,9.82
2023-08-17T01:59:08.314Z,8.73
2023-08-17T02:01:35.030Z,10.05
2023-08-17T02:04:03.340Z,8.15
2023-08-17T02:06:30.580Z,8.75
2023-08-17T02:08:57.268Z,8.55
2023-08-17T02:11:23.955Z,9.07
2023-08-17T02:13:50.656Z,8.52
2023-08-17T02:16:17.385Z,9.90
2023-08-17T02:18:44.174Z,7.65
2023-08-17T02:21:10.965Z,8.18
2023-08-17T02:23:37.626Z,11.55
2023-08-17T02:26:04.323Z,8.82
2023-08-17T02:28:31.245Z,7.60
2023-08-17T02:30:59.419Z,8.20
2023-08-17T02:33:26.185Z,10.00
2023-08-17T02:35:53.488Z,8.55
2023-08-17T02:38:20.239Z,8.27
2023-08-17T02:40:47.007Z,7.53
2023-08-17T02:43:13.737Z,8.07
2023-08-17T02:45:40.514Z,9.40
2023-08-17T02:48:07.468Z,8.07
2023-08-17T02:50:34.226Z,8.05
2023-08-17T02:53:01.346Z,7.68
2023-08-17T02:55:27.979Z,7.15
2023-08-17T02:57:54.661Z,7.45
2023-08-17T03:00:21.412Z,7.88
2023-08-17T03:02:48.151Z,7.50
2023-08-17T03:05:14.855Z,6.53
2023-08-17T03:07:41.636Z,8.65
2023-08-17T03:10:08.593Z,7.40
2023-08-17T03:12:35.374Z,7.22
2023-08-17T03:15:02.694Z,6.97
2023-08-17T03:17:29.574Z,10.15
2023-08-17T03:19:56.367Z,7.07
2023-08-17T03:22:23.499Z,7.72
2023-08-17T03:24:50.242Z,8.10
2023-08-17T03:27:17.041Z,7.22
2023-08-17T03:29:43.776Z,7.57
2023-08-17T03:32:10.516Z,6.40
2023-08-17T03:34:37.203Z,8.18
2023-08-17T03:37:05.010Z,14.55
2023-08-17T03:39:32.108Z,8.85
2023-08-17T03:41:58.780Z,7.60
2023-08-17T03:44:25.557Z,7.40
2023-08-17T03:46:52.289Z,6.80
2023-08-17T03:49:18.991Z,6.18
2023-08-17T03:51:45.715Z,7.40
2023-08-17T03:54:13.945Z,6.90
2023-08-17T03:56:40.668Z,6.97
2023-08-17T03:59:07.877Z,7.68
2023-08-17T04:01:34.664Z,7.80
2023-08-17T04:04:01.400Z,8.68
2023-08-17T04:06:28.186Z,7.95
2023-08-17T04:08:54.885Z,7.13
2023-08-17T04:11:21.561Z,10.15
2023-08-17T04:13:48.298Z,7.13
2023-08-17T04:16:15.026Z,14.68
2023-08-17T04:18:41.721Z,10.00
2023-08-17T04:21:08.383Z,8.35
2023-08-17T04:23:35.053Z,10.25
2023-08-17T04:26:01.835Z,8.55
2023-08-17T04:28:28.561Z,9.30
2023-08-17T04:30:55.813Z,13.02
2023-08-17T04:33:22.529Z,7.65
2023-08-17T04:35:49.435Z,12.38
2023-08-17T04:38:16.099Z,8.38
2023-08-17T04:40:43.040Z,9.10
2023-08-17T04:43:11.758Z,7.40
2023-08-17T04:45:39.093Z,8.65
2023-08-17T04:48:07.316Z,8.65
2023-08-17T04:50:34.258Z,9.07
2023-08-17T04:53:01.015Z,7.45
2023-08-17T04:55:27.741Z,8.70
2023-08-17T04:57:54.512Z,9.40
2023-08-17T05:00:26.620Z,7.63
2023-08-17T05:02:53.366Z,9.93
2023-08-17T05:05:20.323Z,8.07
2023-08-17T05:07:47.055Z,7.75
2023-08-17T05:10:13.797Z,6.88
2023-08-17T05:12:40.571Z,7.65
2023-08-17T05:15:10.953Z,8.50
2023-08-17T05:17:38.129Z,7.40
2023-08-17T05:20:05.976Z,6.57
2023-08-17T05:22:32.650Z,7.70
2023-08-17T05:24:59.332Z,9.10
2023-08-17T05:27:26.268Z,7.65
2023-08-17T05:29:53.228Z,9.45
2023-08-17T05:32:19.896Z,7.43
2023-08-17T05:34:48.209Z,7.22
2023-08-17T05:37:16.468Z,7.20
2023-08-17T05:39:43.188Z,8.70
2023-08-17T05:42:11.090Z,9.30
2023-08-17T05:44:41.701Z,9.40
2023-08-17T05:47:08.468Z,8.52
2023-08-17T05:49:35.211Z,7.88
2023-08-17T05:52:02.257Z,6.57
2023-08-17T05:54:28.990Z,7.28
2023-08-17T05:56:56.170Z,7.88
2023-08-17T05:59:22.997Z,5.97
2023-08-17T06:01:49.842Z,5.97
2023-08-17T06:04:16.505Z,8.32
2023-08-17T06:06:43.313Z,8.02
2023-08-17T06:09:10.650Z,6.10
2023-08-17T06:11:37.420Z,7.45
2023-08-17T06:14:04.366Z,5.28
2023-08-17T06:16:31.134Z,7.35
2023-08-17T06:18:57.892Z,7.97
2023-08-17T06:21:24.709Z,10.80
2023-08-17T06:23:51.404Z,9.32
2023-08-17T06:26:18.088Z,9.35
2023-08-17T06:28:45.053Z,5.65
2023-08-17T06:31:11.766Z,7.25
2023-08-17T06:33:38.527Z,8.98
2023-08-17T06:36:05.557Z,9.07
2023-08-17T06:38:32.244Z,5.82
2023-08-17T06:40:59.004Z,6.63
2023-08-17T06:43:25.863Z,6.47
2023-08-17T06:45:52.572Z,4.85
2023-08-17T06:48:19.350Z,5.07
2023-08-17T06:50:46.054Z,7.00
2023-08-17T06:53:12.728Z,5.07
2023-08-17T06:55:39.514Z,5.97
2023-08-17T06:58:06.367Z,6.25
2023-08-17T07:00:36.616Z,6.95
2023-08-17T07:03:05.125Z,3.85
2023-08-17T07:05:32.011Z,5.38
2023-08-17T07:07:59.790Z,6.10
2023-08-17T07:10:26.958Z,5.70
2023-08-17T07:12:54.267Z,3.30
2023-08-17T07:15:21.121Z,4.78
2023-08-17T07:17:47.898Z,5.00
2023-08-17T07:20:17.144Z,4.65
2023-08-17T07:22:45.205Z,5.00
2023-08-17T07:25:11.993Z,6.25
2023-08-17T07:27:38.722Z,6.93
2023-08-17T07:30:05.969Z,8.98
2023-08-17T07:32:33.637Z,4.85
2023-08-17T07:35:00.445Z,4.85
2023-08-17T07:37:34.198Z,4.57
2023-08-17T07:40:01.119Z,3.25
2023-08-17T07:42:28.202Z,7.00
2023-08-17T07:44:55.086Z,5.25
2023-08-17T07:47:21.805Z,4.40
2023-08-17T07:49:49.694Z,3.63
2023-08-17T07:52:17.524Z,5.30
2023-08-17T07:54:44.334Z,3.67
2023-08-17T07:57:11.196Z,4.20
2023-08-17T07:59:38.016Z,5.95
2023-08-17T08:02:04.880Z,4.38
2023-08-17T08:04:31.685Z,5.18
2023-08-17T08:06:59.299Z,3.92
2023-08-17T08:09:26.046Z,5.57
2023-08-17T08:11:52.868Z,6.05
2023-08-17T08:14:19.664Z,4.53
2023-08-17T08:16:46.389Z,4.97
2023-08-17T08:19:14.393Z,3.63
2023-08-17T08:21:41.113Z,5.50
2023-08-17T08:24:17.615Z,4.63
2023-08-17T08:26:45.143Z,4.45
2023-08-17T08:29:11.899Z,4.13
2023-08-17T08:31:38.654Z,5.65
2023-08-17T08:34:05.953Z,6.05
2023-08-17T08:36:32.624Z,6.25
2023-08-17T08:38:59.483Z,6.07
2023-08-17T08:41:28.421Z,7.20
2023-08-17T08:43:55.643Z,6.78
2023-08-17T08:46:26.675Z,5.20
2023-08-17T08:48:54.310Z,3.85
2023-08-17T08:51:27.838Z,6.05
2023-08-17T08:54:03.446Z,8.57
2023-08-17T08:56:34.170Z,5.68
2023-08-17T08:59:04.181Z,5.15
2023-08-17T09:01:32.738Z,4.47
2023-08-17T09:04:03.998Z,5.45
2023-08-17T09:06:31.886Z,8.35
2023-08-17T09:08:59.112Z,5.00
2023-08-17T09:11:25.830Z,4.00
2023-08-17T09:13:54.159Z,5.95
2023-08-17T09:16:22.917Z,3.42
2023-08-17T09:18:54.412Z,5.72
2023-08-17T09:21:23.353Z,4.90
2023-08-17T09:24:00.281Z,4.80
2023-08-17T09:26:33.384Z,5.28
2023-08-17T09:29:01.486Z,4.47
2023-08-17T09:31:32.001Z,3.60
2023-08-17T09:33:58.730Z,6.25
2023-08-17T09:36:27.310Z,6.45
2023-08-17T09:38:54.112Z,10.95
2023-08-17T09:41:21.226Z,9.57
2023-08-17T09:43:48.864Z,3.92
2023-08-17T09:46:16.233Z,4.22
2023-08-17T09:48:46.634Z,6.47
2023-08-17T09:51:16.926Z,5.30
2023-08-17T09:53:43.924Z,5.22
2023-08-17T09:58:44.750Z,5.87
2023-08-17T10:01:12.315Z,5.05
2023-08-17T10:03:43.304Z,5.10
2023-08-17T10:06:12.358Z,5.20
2023-08-17T10:08:48.141Z,5.28
2023-08-17T10:11:20.060Z,5.25
2023-08-17T10:13:57.939Z,4.90
2023-08-17T10:16:32.727Z,6.20
2023-08-17T10:19:19.204Z,4.57
2023-08-17T10:21:51.971Z,3.35
2023-08-17T10:24:20.762Z,5.78
2023-08-17T10:26:48.326Z,6.45
2023-08-17T10:29:17.729Z,3.08
2023-08-17T10:31:48.911Z,4.10
2023-08-17T10:34:16.608Z,5.15
2023-08-17T10:36:44.013Z,4.65
2023-08-17T10:39:23.839Z,5.40
2023-08-17T10:41:53.674Z,3.65
2023-08-17T10:44:39.635Z,5.03
2023-08-17T10:50:06.552Z,5.07
2023-08-17T10:52:35.157Z,3.58
2023-08-17T10:55:13.779Z,3.80
2023-08-17T10:57:44.762Z,6.93
2023-08-17T11:00:29.180Z,4.38
2023-08-17T11:03:07.007Z,4.53
2023-08-17T11:05:55.042Z,5.70
2023-08-17T11:08:22.713Z,7.43
2023-08-17T11:11:13.535Z,5.63
2023-08-17T11:13:45.523Z,6.00
2023-08-17T11:16:17.980Z,4.05
2023-08-17T11:18:45.860Z,4.32
2023-08-17T11:21:19.406Z,5.68
2023-08-17T11:23:46.706Z,4.50
2023-08-17T11:26:17.065Z,4.15
2023-08-17T11:28:46.075Z,5.85
2023-08-17T11:31:15.140Z,4.03
2023-08-17T11:33:43.608Z,5.18
2023-08-17T11:36:11.280Z,5.13
2023-08-17T11:38:43.466Z,5.97
2023-08-17T11:41:11.137Z,6.18
2023-08-17T11:43:45.563Z,3.75
2023-08-17T11:46:13.556Z,5.68
2023-08-17T11:48:40.499Z,5.20
2023-08-17T11:51:07.271Z,6.05
2023-08-17T11:53:35.824Z,5.63
2023-08-17T11:56:06.717Z,5.18
2023-08-17T11:58:45.586Z,4.65
2023-08-17T12:01:13.950Z,5.28
2023-08-17T12:03:42.792Z,4.25
2023-08-17T12:06:10.856Z,5.93
2023-08-17T12:08:37.650Z,5.00
2023-08-17T12:11:05.238Z,3.50
2023-08-17T12:13:35.125Z,5.18
2023-08-17T12:16:02.441Z,5.05
2023-08-17T12:18:29.277Z,6.75
2023-08-17T12:20:56.851Z,6.20
2023-08-17T12:23:23.751Z,5.57
2023-08-17T12:25:55.125Z,5.40
2023-08-17T12:28:23.274Z,4.85
2023-08-17T12:31:01.782Z,4.72
2023-08-17T12:33:28.926Z,3.60
2023-08-17T12:35:56.283Z,5.22
2023-08-17T12:38:25.495Z,6.47
2023-08-17T12:40:52.394Z,6.07
2023-08-17T12:43:19.119Z,6.22
2023-08-17T12:45:45.813Z,5.10
2023-08-17T12:48:12.697Z,4.65
2023-08-17T12:53:09.254Z,3.60
2023-08-17T12:55:36.214Z,4.35
2023-08-17T12:58:03.184Z,4.55
2023-08-17T13:00:29.948Z,6.18
2023-08-17T13:02:56.758Z,4.30
2023-08-17T13:05:24.065Z,3.88
2023-08-17T13:07:50.808Z,6.20
2023-08-17T13:10:17.643Z,3.75
2023-08-17T13:12:44.328Z,4.38
2023-08-17T13:15:11.072Z,5.60
2023-08-17T13:17:37.897Z,3.88
2023-08-17T13:20:06.850Z,4.82
2023-08-17T13:22:33.728Z,5.05
2023-08-17T13:25:00.545Z,6.80
2023-08-17T13:27:28.370Z,3.22
2023-08-17T13:29:55.153Z,3.75
2023-08-17T13:32:22.032Z,5.07
2023-08-17T13:34:48.793Z,4.47
2023-08-17T13:37:15.505Z,4.57
2023-08-17T13:39:42.258Z,5.35
2023-08-17T13:42:08.937Z,5.88
2023-08-17T13:44:35.775Z,3.95
2023-08-17T13:47:02.556Z,3.72
2023-08-17T13:49:29.362Z,6.53
2023-08-17T13:51:57.634Z,3.85
2023-08-17T13:54:25.232Z,4.38
2023-08-17T13:56:52.651Z,3.92
2023-08-17T13:59:19.349Z,3.88
2023-08-17T14:01:46.193Z,5.90
2023-08-17T14:04:13.606Z,4.15
2023-08-17T14:06:40.934Z,3.80
2023-08-17T14:09:07.987Z,4.55
2023-08-17T14:11:34.821Z,3.83
2023-08-17T14:14:01.646Z,4.47
2023-08-17T14:16:28.464Z,4.05
2023-08-17T14:18:55.894Z,4.03
2023-08-17T14:21:22.719Z,3.88
2023-08-17T14:23:50.556Z,5.10
2023-08-17T14:26:17.218Z,4.88
2023-08-17T14:28:46.283Z,4.30
2023-08-17T14:31:17.114Z,4.20
2023-08-17T14:33:44.681Z,3.60
2023-08-17T14:36:11.392Z,4.13
2023-08-17T14:38:38.351Z,5.25
2023-08-17T14:41:07.613Z,6.72
2023-08-17T14:43:34.249Z,4.85
2023-08-17T14:46:01.151Z,5.00
2023-08-17T14:48:28.080Z,3.65
2023-08-17T14:50:54.818Z,5.43
2023-08-17T14:53:21.563Z,4.63
2023-08-17T14:55:50.678Z,5.75
2023-08-17T14:58:17.576Z,4.82
2023-08-17T15:00:44.375Z,5.07
2023-08-17T15:03:11.231Z,5.75
2023-08-17T15:05:38.589Z,5.75
2023-08-17T15:08:05.904Z,5.60
2023-08-17T15:10:33.846Z,6.60
2023-08-17T15:13:00.610Z,5.57
2023-08-17T15:15:27.418Z,5.97
2023-08-17T15:17:54.144Z,5.43
2023-08-17T15:20:20.912Z,5.45
2023-08-17T15:22:48.886Z,6.85
2023-08-17T15:25:17.270Z,7.38
2023-08-17T15:27:44.150Z,6.07
2023-08-17T15:30:11.276Z,5.93
2023-08-17T15:32:37.989Z,7.28
2023-08-17T15:35:05.105Z,5.47
2023-08-17T15:37:31.952Z,6.97
2023-08-17T15:39:58.707Z,6.90
2023-08-17T15:42:32.341Z,7.60
2023-08-17T15:44:59.111Z,7.35
2023-08-17T15:47:26.290Z,6.75
2023-08-17T15:49:54.060Z,6.70
2023-08-17T15:52:20.758Z,7.40
2023-08-17T15:54:47.429Z,6.47
2023-08-17T15:57:14.218Z,6.70
2023-08-17T15:59:41.052Z,6.40
2023-08-17T16:02:08.231Z,7.43
2023-08-17T16:04:35.037Z,7.43
2023-08-17T16:07:06.105Z,7.63
2023-08-17T16:09:32.841Z,7.20
2023-08-17T16:11:59.622Z,6.05
2023-08-17T16:14:26.964Z,4.90
2023-08-17T16:16:56.578Z,5.70
2023-08-17T16:19:24.207Z,5.85
2023-08-17T16:21:51.035Z,6.40
2023-08-17T16:24:17.794Z,5.78
2023-08-17T16:26:44.751Z,6.85
2023-08-17T16:29:11.469Z,6.50
2023-08-17T16:31:39.040Z,6.63
2023-08-17T16:34:05.846Z,6.75
2023-08-17T16:36:36.421Z,7.85
2023-08-17T16:39:04.092Z,6.85
2023-08-17T16:41:30.879Z,6.50
2023-08-17T16:43:57.550Z,5.60
2023-08-17T16:46:24.399Z,7.13
2023-08-17T16:48:51.197Z,6.95
2023-08-17T16:51:17.970Z,10.45
2023-08-17T16:53:50.838Z,7.57
2023-08-17T16:56:17.892Z,8.45
2023-08-17T16:58:44.636Z,15.90
2023-08-17T17:01:14.914Z,10.70
2023-08-17T17:03:43.148Z,8.93
2023-08-17T17:06:10.160Z,6.25
2023-08-17T17:08:36.907Z,8.38
2023-08-17T17:11:04.268Z,5.32
2023-08-17T17:13:31.172Z,7.30
2023-08-17T17:15:58.007Z,6.97
2023-08-17T17:18:29.477Z,6.22
2023-08-17T17:20:56.283Z,5.68
2023-08-17T17:23:23.514Z,7.88
2023-08-17T17:25:50.193Z,6.45
2023-08-17T17:28:16.866Z,5.75
2023-08-17T17:30:43.643Z,7.57
2023-08-17T17:33:10.461Z,6.88
2023-08-17T17:35:37.350Z,6.97
2023-08-17T17:38:04.178Z,8.60
2023-08-17T17:40:31.008Z,5.47
2023-08-17T17:42:57.677Z,6.15
2023-08-17T17:45:25.538Z,5.45
2023-08-17T17:47:52.406Z,7.00
2023-08-17T17:50:19.181Z,7.43
2023-08-17T17:52:48.609Z,8.32
2023-08-17T17:55:15.646Z,6.05
2023-08-17T17:57:42.390Z,5.93
2023-08-17T18:00:11.385Z,5.65
2023-08-17T18:02:38.239Z,5.95
2023-08-17T18:05:05.524Z,6.88
2023-08-17T18:07:32.262Z,7.18
2023-08-17T18:09:58.980Z,8.82
2023-08-17T18:12:28.945Z,6.70
2023-08-17T18:15:00.546Z,7.55
2023-08-17T18:17:27.938Z,7.65
2023-08-17T18:19:54.864Z,6.93
2023-08-17T18:22:22.054Z,6.13
2023-08-17T18:24:48.901Z,6.60
2023-08-17T18:27:15.575Z,6.82
2023-08-17T18:29:42.332Z,5.55
2023-08-17T18:32:09.016Z,9.63
2023-08-17T18:34:35.698Z,8.32
2023-08-17T18:37:03.675Z,6.35
2023-08-17T18:39:30.382Z,5.53
2023-08-17T18:41:57.091Z,6.05
2023-08-17T18:44:23.777Z,5.82
2023-08-17T18:46:50.439Z,8.85
2023-08-17T18:49:17.149Z,7.53
2023-08-17T18:51:43.899Z,5.65
2023-08-17T18:54:11.009Z,7.43
2023-08-17T18:56:37.731Z,5.10
2023-08-17T18:59:04.719Z,9.52
2023-08-17T19:01:31.498Z,8.23
2023-08-17T19:03:58.303Z,7.72
2023-08-17T19:06:25.023Z,6.07
2023-08-17T19:08:51.679Z,4.75
2023-08-17T19:11:18.325Z,8.23
2023-08-17T19:13:45.020Z,5.82
2023-08-17T19:16:11.778Z,6.57
2023-08-17T19:18:38.528Z,7.15
2023-08-17T19:21:05.401Z,7.53
2023-08-17T19:23:32.105Z,7.40
2023-08-17T19:25:58.784Z,6.30
2023-08-17T19:28:25.526Z,7.03
2023-08-17T19:30:52.229Z,8.82
2023-08-17T19:33:18.909Z,7.93
2023-08-17T19:35:46.371Z,10.52
2023-08-17T19:38:13.156Z,6.60
2023-08-17T19:40:40.463Z,8.73
2023-08-17T19:43:08.053Z,6.70
2023-08-17T19:45:35.474Z,6.95
2023-08-17T19:48:02.259Z,6.88
2023-08-17T19:50:29.180Z,8.43
2023-08-17T19:52:55.985Z,7.55
2023-08-17T19:55:22.716Z,11.57
2023-08-17T19:57:49.477Z,6.93
2023-08-17T20:00:16.498Z,7.50
2023-08-17T20:02:43.333Z,8.07
2023-08-17T20:05:10.402Z,7.68
2023-08-17T20:07:37.901Z,6.60
2023-08-17T20:10:05.724Z,7.75
2023-08-17T20:12:32.648Z,9.20
2023-08-17T20:14:59.484Z,8.70
2023-08-17T20:17:26.456Z,8.35
2023-08-17T20:19:53.653Z,10.70
2023-08-17T20:22:20.399Z,7.65
2023-08-17T20:24:47.102Z,7.68
2023-08-17T20:27:13.978Z,6.47
2023-08-17T20:29:40.760Z,8.32
2023-08-17T20:32:07.966Z,7.40
2023-08-17T20:34:34.725Z,7.80
2023-08-17T20:37:01.447Z,7.63
2023-08-17T20:39:29.105Z,7.65
2023-08-17T20:41:56.144Z,7.97
2023-08-17T20:44:22.867Z,8.70
2023-08-17T20:46:50.032Z,13.07
2023-08-17T20:49:17.345Z,7.53
2023-08-17T20:51:45.645Z,9.48
2023-08-17T20:54:12.385Z,7.00
2023-08-17T20:56:39.235Z,8.52
2023-08-17T20:59:05.969Z,6.38
2023-08-17T21:01:32.811Z,6.95
2023-08-17T21:03:59.765Z,6.50
2023-08-17T21:06:26.644Z,8.90
2023-08-17T21:08:53.381Z,7.65
2023-08-17T21:11:20.335Z,6.10
2023-08-17T21:13:47.313Z,6.53
2023-08-17T21:16:14.606Z,6.85
2023-08-17T21:18:41.351Z,7.55
2023-08-17T21:21:08.070Z,6.85
2023-08-17T21:23:35.277Z,7.60
2023-08-17T21:26:02.819Z,7.18
2023-08-17T21:28:29.616Z,9.98
2023-08-17T21:31:03.865Z,6.28
2023-08-17T21:33:30.979Z,7.90
2023-08-17T21:35:58.952Z,7.38
2023-08-17T21:38:25.973Z,7.75
2023-08-17T21:41:00.914Z,8.15
2023-08-17T21:45:59.999Z,7.93
2023-08-17T21:48:27.822Z,8.30
2023-08-17T21:50:54.850Z,6.97
2023-08-17T21:53:22.301Z,7.05
2023-08-17T21:55:50.784Z,7.18
2023-08-17T21:58:19.759Z,7.95
2023-08-17T22:00:47.718Z,7.22
2023-08-17T22:03:16.018Z,6.43
2023-08-17T22:05:47.034Z,5.70
2023-08-17T22:08:14.892Z,7.50
2023-08-17T22:10:42.979Z,8.38
2023-08-17T22:13:09.787Z,6.78
2023-08-17T22:15:36.458Z,9.13
2023-08-17T22:18:03.300Z,8.98
2023-08-17T22:20:30.100Z,10.60
2023-08-17T22:22:56.814Z,7.65
2023-08-17T22:25:23.735Z,8.30
2023-08-17T22:27:50.509Z,8.75
2023-08-17T22:30:17.298Z,9.70
2023-08-17T22:32:44.149Z,7.68
2023-08-17T22:35:11.752Z,7.30
2023-08-17T22:37:38.838Z,8.32
2023-08-17T22:40:07.420Z,7.45
2023-08-17T22:42:34.324Z,7.45
2023-08-17T22:45:01.038Z,7.32
2023-08-17T22:47:28.300Z,6.53
2023-08-17T22:49:55.853Z,7.72
2023-08-17T22:52:22.699Z,7.65
2023-08-17T22:54:49.859Z,7.38
2023-08-17T22:57:16.840Z,6.88
2023-08-17T22:59:43.808Z,8.10
2023-08-17T23:02:10.554Z,8.32
2023-08-17T23:04:37.365Z,7.93
2023-08-17T23:07:04.035Z,6.65
2023-08-17T23:09:32.938Z,7.53
2023-08-17T23:11:59.756Z,9.50
2023-08-17T23:14:26.505Z,8.60
2023-08-17T23:16:53.232Z,6.82
2023-08-17T23:19:19.965Z,7.22
2023-08-17T23:21:46.685Z,7.40
2023-08-17T23:24:13.389Z,6.47
2023-08-17T23:26:40.311Z,7.97
2023-08-17T23:29:08.824Z,7.35
2023-08-17T23:31:35.615Z,6.88
2023-08-17T23:34:02.378Z,9.77
2023-08-17T23:36:29.096Z,6.18
2023-08-17T23:38:55.833Z,6.95
2023-08-17T23:41:22.544Z,8.02
2023-08-17T23:43:49.208Z,7.00
2023-08-17T23:46:15.896Z,8.20
2023-08-17T23:48:42.684Z,7.55
2023-08-17T23:51:09.482Z,8.27
2023-08-17T23:53:36.184Z,6.47
2023-08-17T23:56:04.293Z,6.85
2023-08-17T23:58:30.968Z,8.90
